sensor_id;sensor_type;location;lat;lon;timestamp;P1;durP1;ratioP1;P2;durP2;ratioP2
38513;SDS011;24282;48.400;10.808;2022-10-16T00:02:02;5.32;;;2.10;;
38513;SDS011;24282;48.400;10.808;2022-10-16T00:04:27;5.32;;;2.67;;
38513;SDS011;24282;48.400;10.808;2022-10-16T00:06:53;6.82;;;2.20;;
38513;SDS011;24282;48.400;10.808;2022-10-16T00:09:19;5.88;;;2.60;;
38513;SDS011;24282;48.400;10.808;2022-10-16T00:11:44;5.72;;;2.08;;
38513;SDS011;24282;48.400;10.808;2022-10-16T00:14:11;7.28;;;2.25;;
38513;SDS011;24282;48.400;10.808;2022-10-16T00:16:38;8.48;;;2.30;;
38513;SDS011;24282;48.400;10.808;2022-10-16T00:19:04;4.72;;;1.90;;
38513;SDS011;24282;48.400;10.808;2022-10-16T00:21:30;4.00;;;2.13;;
38513;SDS011;24282;48.400;10.808;2022-10-16T00:23:58;2.80;;;1.80;;
38513;SDS011;24282;48.400;10.808;2022-10-16T00:26:26;6.03;;;2.47;;
38513;SDS011;24282;48.400;10.808;2022-10-16T00:28:53;5.07;;;2.28;;
38513;SDS011;24282;48.400;10.808;2022-10-16T00:31:19;4.55;;;2.00;;
38513;SDS011;24282;48.400;10.808;2022-10-16T00:33:46;5.43;;;2.45;;
38513;SDS011;24282;48.400;10.808;2022-10-16T00:36:13;9.15;;;2.00;;
38513;SDS011;24282;48.400;10.808;2022-10-16T00:38:41;8.18;;;1.90;;
38513;SDS011;24282;48.400;10.808;2022-10-16T00:41:07;3.97;;;1.80;;
38513;SDS011;24282;48.400;10.808;2022-10-16T00:43:47;4.10;;;2.55;;
38513;SDS011;24282;48.400;10.808;2022-10-16T00:46:38;5.05;;;2.10;;
38513;SDS011;24282;48.400;10.808;2022-10-16T00:51:40;5.25;;;1.80;;
38513;SDS011;24282;48.400;10.808;2022-10-16T00:54:14;4.47;;;2.03;;
38513;SDS011;24282;48.400;10.808;2022-10-16T00:56:47;4.68;;;1.80;;
38513;SDS011;24282;48.400;10.808;2022-10-16T00:59:25;4.60;;;2.33;;
38513;SDS011;24282;48.400;10.808;2022-10-16T01:01:59;3.95;;;2.15;;
38513;SDS011;24282;48.400;10.808;2022-10-16T01:04:27;3.60;;;2.25;;
38513;SDS011;24282;48.400;10.808;2022-10-16T01:12:50;5.00;;;1.65;;
38513;SDS011;24282;48.400;10.808;2022-10-16T01:15:28;2.03;;;1.20;;
38513;SDS011;24282;48.400;10.808;2022-10-16T01:25:54;3.10;;;1.50;;
38513;SDS011;24282;48.400;10.808;2022-10-16T01:31:19;2.25;;;1.48;;
38513;SDS011;24282;48.400;10.808;2022-10-16T01:33:48;2.13;;;1.25;;
38513;SDS011;24282;48.400;10.808;2022-10-16T01:36:23;3.80;;;1.30;;
38513;SDS011;24282;48.400;10.808;2022-10-16T01:38:54;1.85;;;1.13;;
38513;SDS011;24282;48.400;10.808;2022-10-16T01:41:22;2.72;;;1.25;;
38513;SDS011;24282;48.400;10.808;2022-10-16T01:46:24;3.85;;;1.10;;
38513;SDS011;24282;48.400;10.808;2022-10-16T01:48:51;3.38;;;1.20;;
38513;SDS011;24282;48.400;10.808;2022-10-16T01:51:18;3.78;;;1.23;;
38513;SDS011;24282;48.400;10.808;2022-10-16T01:53:48;3.53;;;1.38;;
38513;SDS011;24282;48.400;10.808;2022-10-16T01:56:19;4.40;;;1.33;;
38513;SDS011;24282;48.400;10.808;2022-10-16T01:58:52;5.05;;;1.80;;
38513;SDS011;24282;48.400;10.808;2022-10-16T02:01:25;1.83;;;1.15;;
38513;SDS011;24282;48.400;10.808;2022-10-16T02:03:54;3.60;;;1.35;;
38513;SDS011;24282;48.400;10.808;2022-10-16T02:06:23;4.65;;;1.48;;
38513;SDS011;24282;48.400;10.808;2022-10-16T02:08:50;2.92;;;1.10;;
38513;SDS011;24282;48.400;10.808;2022-10-16T02:11:15;2.78;;;1.20;;
38513;SDS011;24282;48.400;10.808;2022-10-16T02:13:43;6.03;;;1.88;;
38513;SDS011;24282;48.400;10.808;2022-10-16T02:16:11;3.28;;;1.73;;
38513;SDS011;24282;48.400;10.808;2022-10-16T02:18:39;3.28;;;1.58;;
38513;SDS011;24282;48.400;10.808;2022-10-16T02:21:08;10.13;;;3.08;;
38513;SDS011;24282;48.400;10.808;2022-10-16T02:26:19;1.90;;;1.40;;
38513;SDS011;24282;48.400;10.808;2022-10-16T02:28:54;4.07;;;1.55;;
38513;SDS011;24282;48.400;10.808;2022-10-16T02:31:27;5.18;;;1.77;;
38513;SDS011;24282;48.400;10.808;2022-10-16T02:33:56;3.72;;;1.50;;
38513;SDS011;24282;48.400;10.808;2022-10-16T02:36:25;4.40;;;1.80;;
38513;SDS011;24282;48.400;10.808;2022-10-16T02:38:52;3.30;;;1.83;;
38513;SDS011;24282;48.400;10.808;2022-10-16T02:41:20;4.75;;;1.60;;
38513;SDS011;24282;48.400;10.808;2022-10-16T02:43:47;3.58;;;1.75;;
38513;SDS011;24282;48.400;10.808;2022-10-16T02:46:12;4.93;;;1.50;;
38513;SDS011;24282;48.400;10.808;2022-10-16T02:48:38;5.07;;;1.92;;
38513;SDS011;24282;48.400;10.808;2022-10-16T02:51:04;2.28;;;1.35;;
38513;SDS011;24282;48.400;10.808;2022-10-16T02:53:30;5.53;;;1.40;;
38513;SDS011;24282;48.400;10.808;2022-10-16T02:55:56;4.38;;;1.40;;
38513;SDS011;24282;48.400;10.808;2022-10-16T02:58:21;3.97;;;1.48;;
38513;SDS011;24282;48.400;10.808;2022-10-16T03:00:47;3.85;;;1.35;;
38513;SDS011;24282;48.400;10.808;2022-10-16T03:03:13;4.65;;;1.52;;
38513;SDS011;24282;48.400;10.808;2022-10-16T03:05:38;4.95;;;1.70;;
38513;SDS011;24282;48.400;10.808;2022-10-16T03:08:04;5.03;;;1.45;;
38513;SDS011;24282;48.400;10.808;2022-10-16T03:10:30;3.47;;;1.35;;
38513;SDS011;24282;48.400;10.808;2022-10-16T03:12:56;1.80;;;0.98;;
38513;SDS011;24282;48.400;10.808;2022-10-16T03:15:21;4.40;;;2.35;;
38513;SDS011;24282;48.400;10.808;2022-10-16T03:17:47;3.30;;;1.40;;
38513;SDS011;24282;48.400;10.808;2022-10-16T03:20:13;2.53;;;1.20;;
38513;SDS011;24282;48.400;10.808;2022-10-16T03:22:39;3.03;;;1.33;;
38513;SDS011;24282;48.400;10.808;2022-10-16T03:25:04;3.08;;;1.05;;
38513;SDS011;24282;48.400;10.808;2022-10-16T03:27:30;2.75;;;1.10;;
38513;SDS011;24282;48.400;10.808;2022-10-16T03:29:57;2.28;;;1.20;;
38513;SDS011;24282;48.400;10.808;2022-10-16T03:32:23;2.53;;;1.00;;
38513;SDS011;24282;48.400;10.808;2022-10-16T03:34:50;1.40;;;1.10;;
38513;SDS011;24282;48.400;10.808;2022-10-16T03:37:15;4.03;;;1.10;;
38513;SDS011;24282;48.400;10.808;2022-10-16T03:39:41;3.28;;;1.20;;
38513;SDS011;24282;48.400;10.808;2022-10-16T03:42:07;2.00;;;1.20;;
38513;SDS011;24282;48.400;10.808;2022-10-16T03:44:32;2.55;;;1.02;;
38513;SDS011;24282;48.400;10.808;2022-10-16T03:46:58;1.95;;;1.10;;
38513;SDS011;24282;48.400;10.808;2022-10-16T03:49:24;3.47;;;1.75;;
38513;SDS011;24282;48.400;10.808;2022-10-16T03:51:49;4.63;;;1.10;;
38513;SDS011;24282;48.400;10.808;2022-10-16T03:54:15;2.83;;;1.25;;
38513;SDS011;24282;48.400;10.808;2022-10-16T03:56:41;3.35;;;1.40;;
38513;SDS011;24282;48.400;10.808;2022-10-16T03:59:07;2.88;;;1.48;;
38513;SDS011;24282;48.400;10.808;2022-10-16T04:01:32;3.75;;;1.58;;
38513;SDS011;24282;48.400;10.808;2022-10-16T04:03:58;3.00;;;1.58;;
38513;SDS011;24282;48.400;10.808;2022-10-16T04:06:24;1.95;;;1.10;;
38513;SDS011;24282;48.400;10.808;2022-10-16T04:08:50;7.15;;;1.55;;
38513;SDS011;24282;48.400;10.808;2022-10-16T04:11:15;6.18;;;1.63;;
38513;SDS011;24282;48.400;10.808;2022-10-16T04:13:41;2.35;;;1.10;;
38513;SDS011;24282;48.400;10.808;2022-10-16T04:16:07;2.20;;;1.42;;
38513;SDS011;24282;48.400;10.808;2022-10-16T04:18:33;1.70;;;1.27;;
38513;SDS011;24282;48.400;10.808;2022-10-16T04:21:03;6.10;;;1.50;;
38513;SDS011;24282;48.400;10.808;2022-10-16T04:23:32;4.40;;;1.38;;
38513;SDS011;24282;48.400;10.808;2022-10-16T04:25:59;3.03;;;1.63;;
38513;SDS011;24282;48.400;10.808;2022-10-16T04:28:25;3.60;;;1.40;;
38513;SDS011;24282;48.400;10.808;2022-10-16T04:30:51;2.22;;;1.10;;
38513;SDS011;24282;48.400;10.808;2022-10-16T04:33:17;4.15;;;2.05;;
38513;SDS011;24282;48.400;10.808;2022-10-16T04:35:46;3.67;;;1.75;;
38513;SDS011;24282;48.400;10.808;2022-10-16T04:38:13;3.33;;;1.15;;
38513;SDS011;24282;48.400;10.808;2022-10-16T04:40:39;5.38;;;1.58;;
38513;SDS011;24282;48.400;10.808;2022-10-16T04:43:07;4.07;;;1.30;;
38513;SDS011;24282;48.400;10.808;2022-10-16T04:45:33;2.50;;;1.20;;
38513;SDS011;24282;48.400;10.808;2022-10-16T04:47:59;5.43;;;1.38;;
38513;SDS011;24282;48.400;10.808;2022-10-16T04:50:25;2.72;;;1.33;;
38513;SDS011;24282;48.400;10.808;2022-10-16T04:53:03;2.67;;;1.60;;
38513;SDS011;24282;48.400;10.808;2022-10-16T04:55:29;6.13;;;2.58;;
38513;SDS011;24282;48.400;10.808;2022-10-16T04:57:55;5.05;;;3.10;;
38513;SDS011;24282;48.400;10.808;2022-10-16T05:00:21;7.93;;;2.30;;
38513;SDS011;24282;48.400;10.808;2022-10-16T05:02:47;3.08;;;2.20;;
38513;SDS011;24282;48.400;10.808;2022-10-16T05:05:14;3.35;;;1.85;;
38513;SDS011;24282;48.400;10.808;2022-10-16T05:07:40;2.67;;;1.50;;
38513;SDS011;24282;48.400;10.808;2022-10-16T05:10:06;9.13;;;1.58;;
38513;SDS011;24282;48.400;10.808;2022-10-16T05:12:32;4.35;;;1.50;;
38513;SDS011;24282;48.400;10.808;2022-10-16T05:14:59;2.92;;;1.25;;
38513;SDS011;24282;48.400;10.808;2022-10-16T05:17:25;1.90;;;1.30;;
38513;SDS011;24282;48.400;10.808;2022-10-16T05:19:51;2.17;;;1.60;;
38513;SDS011;24282;48.400;10.808;2022-10-16T05:22:17;3.17;;;1.55;;
38513;SDS011;24282;48.400;10.808;2022-10-16T05:24:43;3.33;;;1.35;;
38513;SDS011;24282;48.400;10.808;2022-10-16T05:27:09;5.30;;;1.35;;
38513;SDS011;24282;48.400;10.808;2022-10-16T05:29:36;2.55;;;1.40;;
38513;SDS011;24282;48.400;10.808;2022-10-16T05:32:02;2.05;;;1.08;;
38513;SDS011;24282;48.400;10.808;2022-10-16T05:34:28;1.90;;;1.13;;
38513;SDS011;24282;48.400;10.808;2022-10-16T05:36:54;1.92;;;1.05;;
38513;SDS011;24282;48.400;10.808;2022-10-16T05:39:19;3.00;;;1.40;;
38513;SDS011;24282;48.400;10.808;2022-10-16T05:41:45;4.13;;;1.27;;
38513;SDS011;24282;48.400;10.808;2022-10-16T05:44:11;3.47;;;1.42;;
38513;SDS011;24282;48.400;10.808;2022-10-16T05:46:37;3.78;;;1.42;;
38513;SDS011;24282;48.400;10.808;2022-10-16T05:49:02;2.38;;;1.25;;
38513;SDS011;24282;48.400;10.808;2022-10-16T05:51:28;2.28;;;1.33;;
38513;SDS011;24282;48.400;10.808;2022-10-16T05:53:54;4.32;;;1.83;;
38513;SDS011;24282;48.400;10.808;2022-10-16T05:56:20;5.20;;;1.50;;
38513;SDS011;24282;48.400;10.808;2022-10-16T05:58:45;5.55;;;1.80;;
38513;SDS011;24282;48.400;10.808;2022-10-16T06:01:12;5.38;;;2.00;;
38513;SDS011;24282;48.400;10.808;2022-10-16T06:03:40;10.60;;;2.65;;
38513;SDS011;24282;48.400;10.808;2022-10-16T06:06:16;6.25;;;2.50;;
38513;SDS011;24282;48.400;10.808;2022-10-16T06:08:44;5.13;;;2.15;;
38513;SDS011;24282;48.400;10.808;2022-10-16T06:11:13;4.78;;;2.97;;
38513;SDS011;24282;48.400;10.808;2022-10-16T06:13:42;5.15;;;2.50;;
38513;SDS011;24282;48.400;10.808;2022-10-16T06:16:08;4.55;;;2.45;;
38513;SDS011;24282;48.400;10.808;2022-10-16T06:18:35;2.83;;;2.00;;
38513;SDS011;24282;48.400;10.808;2022-10-16T06:21:06;5.57;;;1.92;;
38513;SDS011;24282;48.400;10.808;2022-10-16T06:23:34;2.47;;;1.70;;
38513;SDS011;24282;48.400;10.808;2022-10-16T06:26:04;4.40;;;2.33;;
38513;SDS011;24282;48.400;10.808;2022-10-16T06:28:31;16.10;;;10.95;;
38513;SDS011;24282;48.400;10.808;2022-10-16T06:31:01;25.55;;;17.75;;
38513;SDS011;24282;48.400;10.808;2022-10-16T06:33:27;27.25;;;17.70;;
38513;SDS011;24282;48.400;10.808;2022-10-16T06:35:53;22.67;;;17.08;;
38513;SDS011;24282;48.400;10.808;2022-10-16T06:38:24;19.05;;;14.27;;
38513;SDS011;24282;48.400;10.808;2022-10-16T06:40:50;17.02;;;12.00;;
38513;SDS011;24282;48.400;10.808;2022-10-16T06:43:16;13.30;;;8.63;;
38513;SDS011;24282;48.400;10.808;2022-10-16T06:45:41;9.38;;;5.68;;
38513;SDS011;24282;48.400;10.808;2022-10-16T06:48:07;5.75;;;3.78;;
38513;SDS011;24282;48.400;10.808;2022-10-16T06:50:33;6.55;;;2.47;;
38513;SDS011;24282;48.400;10.808;2022-10-16T06:52:58;4.10;;;2.13;;
38513;SDS011;24282;48.400;10.808;2022-10-16T06:55:24;3.45;;;1.88;;
38513;SDS011;24282;48.400;10.808;2022-10-16T06:57:50;2.25;;;1.42;;
38513;SDS011;24282;48.400;10.808;2022-10-16T07:00:15;4.25;;;2.00;;
38513;SDS011;24282;48.400;10.808;2022-10-16T07:02:41;2.88;;;1.83;;
38513;SDS011;24282;48.400;10.808;2022-10-16T07:05:07;2.08;;;1.33;;
38513;SDS011;24282;48.400;10.808;2022-10-16T07:07:33;2.70;;;1.60;;
38513;SDS011;24282;48.400;10.808;2022-10-16T07:09:58;5.85;;;1.63;;
38513;SDS011;24282;48.400;10.808;2022-10-16T07:12:24;6.43;;;2.25;;
38513;SDS011;24282;48.400;10.808;2022-10-16T07:14:50;4.43;;;2.20;;
38513;SDS011;24282;48.400;10.808;2022-10-16T07:17:17;4.35;;;1.90;;
38513;SDS011;24282;48.400;10.808;2022-10-16T07:19:43;2.35;;;1.58;;
38513;SDS011;24282;48.400;10.808;2022-10-16T07:22:09;6.38;;;1.88;;
38513;SDS011;24282;48.400;10.808;2022-10-16T07:24:35;6.95;;;3.15;;
38513;SDS011;24282;48.400;10.808;2022-10-16T07:27:01;6.30;;;4.05;;
38513;SDS011;24282;48.400;10.808;2022-10-16T07:29:26;3.17;;;2.17;;
38513;SDS011;24282;48.400;10.808;2022-10-16T07:31:52;3.70;;;2.28;;
38513;SDS011;24282;48.400;10.808;2022-10-16T07:34:18;2.97;;;1.83;;
38513;SDS011;24282;48.400;10.808;2022-10-16T07:36:50;3.13;;;1.48;;
38513;SDS011;24282;48.400;10.808;2022-10-16T07:39:16;2.13;;;1.35;;
38513;SDS011;24282;48.400;10.808;2022-10-16T07:41:42;2.38;;;1.63;;
38513;SDS011;24282;48.400;10.808;2022-10-16T07:44:08;5.50;;;1.75;;
38513;SDS011;24282;48.400;10.808;2022-10-16T07:46:34;2.17;;;1.20;;
38513;SDS011;24282;48.400;10.808;2022-10-16T07:49:01;4.15;;;2.40;;
38513;SDS011;24282;48.400;10.808;2022-10-16T07:51:27;9.60;;;4.63;;
38513;SDS011;24282;48.400;10.808;2022-10-16T07:53:53;5.95;;;3.50;;
38513;SDS011;24282;48.400;10.808;2022-10-16T07:56:20;4.63;;;2.33;;
38513;SDS011;24282;48.400;10.808;2022-10-16T07:58:46;3.30;;;1.77;;
38513;SDS011;24282;48.400;10.808;2022-10-16T08:01:14;4.38;;;2.00;;
38513;SDS011;24282;48.400;10.808;2022-10-16T08:03:42;5.88;;;1.63;;
38513;SDS011;24282;48.400;10.808;2022-10-16T08:06:13;3.25;;;1.40;;
38513;SDS011;24282;48.400;10.808;2022-10-16T08:08:39;1.70;;;0.90;;
38513;SDS011;24282;48.400;10.808;2022-10-16T08:11:05;3.30;;;1.23;;
38513;SDS011;24282;48.400;10.808;2022-10-16T08:13:31;1.95;;;1.23;;
38513;SDS011;24282;48.400;10.808;2022-10-16T08:15:57;2.38;;;1.30;;
38513;SDS011;24282;48.400;10.808;2022-10-16T08:18:23;3.28;;;1.20;;
38513;SDS011;24282;48.400;10.808;2022-10-16T08:20:54;1.55;;;1.00;;
38513;SDS011;24282;48.400;10.808;2022-10-16T08:23:21;7.57;;;1.33;;
38513;SDS011;24282;48.400;10.808;2022-10-16T08:25:47;2.85;;;1.35;;
38513;SDS011;24282;48.400;10.808;2022-10-16T08:28:13;1.95;;;1.10;;
38513;SDS011;24282;48.400;10.808;2022-10-16T08:30:39;3.78;;;1.60;;
38513;SDS011;24282;48.400;10.808;2022-10-16T08:33:05;3.60;;;1.50;;
38513;SDS011;24282;48.400;10.808;2022-10-16T08:35:31;3.03;;;1.60;;
38513;SDS011;24282;48.400;10.808;2022-10-16T08:37:57;5.22;;;1.80;;
38513;SDS011;24282;48.400;10.808;2022-10-16T08:40:24;6.57;;;1.40;;
38513;SDS011;24282;48.400;10.808;2022-10-16T08:51:01;2.63;;;1.30;;
38513;SDS011;24282;48.400;10.808;2022-10-16T08:54:12;1.67;;;1.00;;
38513;SDS011;24282;48.400;10.808;2022-10-16T08:56:21;1.63;;;0.90;;
38513;SDS011;24282;48.400;10.808;2022-10-16T08:58:47;1.40;;;0.80;;
38513;SDS011;24282;48.400;10.808;2022-10-16T09:01:15;4.00;;;1.10;;
38513;SDS011;24282;48.400;10.808;2022-10-16T09:03:56;1.30;;;0.90;;
38513;SDS011;24282;48.400;10.808;2022-10-16T09:11:48;3.00;;;1.70;;
38513;SDS011;24282;48.400;10.808;2022-10-16T09:25:44;1.60;;;0.75;;
38513;SDS011;24282;48.400;10.808;2022-10-16T09:28:12;2.63;;;0.80;;
38513;SDS011;24282;48.400;10.808;2022-10-16T09:30:39;1.67;;;0.80;;
38513;SDS011;24282;48.400;10.808;2022-10-16T09:33:05;1.55;;;0.70;;
38513;SDS011;24282;48.400;10.808;2022-10-16T09:35:40;1.27;;;0.80;;
38513;SDS011;24282;48.400;10.808;2022-10-16T09:38:09;1.40;;;0.90;;
38513;SDS011;24282;48.400;10.808;2022-10-16T09:40:50;3.17;;;0.90;;
38513;SDS011;24282;48.400;10.808;2022-10-16T09:45:58;1.48;;;1.00;;
38513;SDS011;24282;48.400;10.808;2022-10-16T09:48:27;2.60;;;0.93;;
38513;SDS011;24282;48.400;10.808;2022-10-16T09:51:00;1.67;;;0.98;;
38513;SDS011;24282;48.400;10.808;2022-10-16T09:53:39;2.22;;;0.88;;
38513;SDS011;24282;48.400;10.808;2022-10-16T09:56:10;1.05;;;0.70;;
38513;SDS011;24282;48.400;10.808;2022-10-16T09:58:41;1.75;;;0.93;;
38513;SDS011;24282;48.400;10.808;2022-10-16T10:01:13;1.45;;;0.80;;
38513;SDS011;24282;48.400;10.808;2022-10-16T10:03:41;0.95;;;0.77;;
38513;SDS011;24282;48.400;10.808;2022-10-16T10:08:58;2.30;;;0.82;;
38513;SDS011;24282;48.400;10.808;2022-10-16T10:11:40;1.73;;;0.90;;
38513;SDS011;24282;48.400;10.808;2022-10-16T10:17:13;2.13;;;1.23;;
38513;SDS011;24282;48.400;10.808;2022-10-16T10:38:06;2.40;;;1.33;;
38513;SDS011;24282;48.400;10.808;2022-10-16T10:41:00;1.73;;;0.80;;
38513;SDS011;24282;48.400;10.808;2022-10-16T10:46:38;1.80;;;1.20;;
38513;SDS011;24282;48.400;10.808;2022-10-16T10:49:27;1.65;;;0.77;;
38513;SDS011;24282;48.400;10.808;2022-10-16T10:54:51;1.30;;;0.80;;
38513;SDS011;24282;48.400;10.808;2022-10-16T11:06:08;1.48;;;0.68;;
38513;SDS011;24282;48.400;10.808;2022-10-16T11:09:00;1.05;;;0.73;;
38513;SDS011;24282;48.400;10.808;2022-10-16T11:11:50;2.00;;;0.68;;
38513;SDS011;24282;48.400;10.808;2022-10-16T11:17:11;4.53;;;0.77;;
38513;SDS011;24282;48.400;10.808;2022-10-16T11:19:48;0.98;;;0.80;;
38513;SDS011;24282;48.400;10.808;2022-10-16T11:22:39;0.68;;;0.60;;
38513;SDS011;24282;48.400;10.808;2022-10-16T11:25:22;1.60;;;1.00;;
38513;SDS011;24282;48.400;10.808;2022-10-16T11:28:01;2.15;;;1.00;;
38513;SDS011;24282;48.400;10.808;2022-10-16T11:30:57;2.17;;;1.45;;
38513;SDS011;24282;48.400;10.808;2022-10-16T11:33:44;2.03;;;1.35;;
38513;SDS011;24282;48.400;10.808;2022-10-16T11:44:13;2.67;;;0.70;;
38513;SDS011;24282;48.400;10.808;2022-10-16T11:46:50;0.77;;;0.57;;
38513;SDS011;24282;48.400;10.808;2022-10-16T11:49:26;0.75;;;0.60;;
38513;SDS011;24282;48.400;10.808;2022-10-16T11:57:24;1.45;;;0.70;;
38513;SDS011;24282;48.400;10.808;2022-10-16T11:59:58;1.35;;;0.82;;
38513;SDS011;24282;48.400;10.808;2022-10-16T12:03:20;1.42;;;0.80;;
38513;SDS011;24282;48.400;10.808;2022-10-16T12:06:13;1.38;;;0.93;;
38513;SDS011;24282;48.400;10.808;2022-10-16T12:08:53;2.67;;;0.80;;
38513;SDS011;24282;48.400;10.808;2022-10-16T12:16:38;1.20;;;0.70;;
38513;SDS011;24282;48.400;10.808;2022-10-16T12:19:16;1.40;;;0.65;;
38513;SDS011;24282;48.400;10.808;2022-10-16T12:21:43;0.68;;;0.60;;
38513;SDS011;24282;48.400;10.808;2022-10-16T12:29:57;2.15;;;0.90;;
38513;SDS011;24282;48.400;10.808;2022-10-16T12:32:35;1.52;;;0.73;;
38513;SDS011;24282;48.400;10.808;2022-10-16T12:35:05;0.95;;;0.65;;
38513;SDS011;24282;48.400;10.808;2022-10-16T12:37:42;1.73;;;0.70;;
38513;SDS011;24282;48.400;10.808;2022-10-16T12:40:13;2.33;;;0.85;;
38513;SDS011;24282;48.400;10.808;2022-10-16T12:42:54;1.10;;;0.80;;
38513;SDS011;24282;48.400;10.808;2022-10-16T12:45:30;2.45;;;0.80;;
38513;SDS011;24282;48.400;10.808;2022-10-16T12:47:59;1.75;;;0.57;;
38513;SDS011;24282;48.400;10.808;2022-10-16T12:50:28;1.42;;;0.75;;
38513;SDS011;24282;48.400;10.808;2022-10-16T12:52:57;1.08;;;0.68;;
38513;SDS011;24282;48.400;10.808;2022-10-16T12:55:24;4.97;;;1.10;;
38513;SDS011;24282;48.400;10.808;2022-10-16T13:00:49;1.00;;;0.60;;
38513;SDS011;24282;48.400;10.808;2022-10-16T13:03:31;1.75;;;0.80;;
38513;SDS011;24282;48.400;10.808;2022-10-16T13:06:18;2.47;;;0.77;;
38513;SDS011;24282;48.400;10.808;2022-10-16T13:09:06;1.65;;;0.88;;
38513;SDS011;24282;48.400;10.808;2022-10-16T13:22:05;1.13;;;0.70;;
38513;SDS011;24282;48.400;10.808;2022-10-16T13:29:44;1.67;;;0.95;;
38513;SDS011;24282;48.400;10.808;2022-10-16T13:32:11;1.30;;;0.70;;
38513;SDS011;24282;48.400;10.808;2022-10-16T13:34:43;1.10;;;0.52;;
38513;SDS011;24282;48.400;10.808;2022-10-16T13:37:21;1.27;;;0.60;;
38513;SDS011;24282;48.400;10.808;2022-10-16T13:39:48;0.60;;;0.60;;
38513;SDS011;24282;48.400;10.808;2022-10-16T13:42:22;1.90;;;0.70;;
38513;SDS011;24282;48.400;10.808;2022-10-16T13:44:51;2.10;;;0.80;;
38513;SDS011;24282;48.400;10.808;2022-10-16T13:47:22;2.50;;;0.90;;
38513;SDS011;24282;48.400;10.808;2022-10-16T13:50:02;1.52;;;0.70;;
38513;SDS011;24282;48.400;10.808;2022-10-16T13:52:30;1.70;;;0.80;;
38513;SDS011;24282;48.400;10.808;2022-10-16T13:54:56;1.02;;;0.60;;
38513;SDS011;24282;48.400;10.808;2022-10-16T13:57:22;1.45;;;0.70;;
38513;SDS011;24282;48.400;10.808;2022-10-16T13:59:49;1.45;;;0.60;;
38513;SDS011;24282;48.400;10.808;2022-10-16T14:04:51;1.40;;;0.80;;
38513;SDS011;24282;48.400;10.808;2022-10-16T14:07:27;1.20;;;0.70;;
38513;SDS011;24282;48.400;10.808;2022-10-16T14:09:56;1.10;;;0.80;;
38513;SDS011;24282;48.400;10.808;2022-10-16T14:12:44;2.58;;;0.80;;
38513;SDS011;24282;48.400;10.808;2022-10-16T14:15:17;1.13;;;0.70;;
38513;SDS011;24282;48.400;10.808;2022-10-16T14:17:45;1.17;;;0.60;;
38513;SDS011;24282;48.400;10.808;2022-10-16T14:20:15;1.88;;;0.60;;
38513;SDS011;24282;48.400;10.808;2022-10-16T14:22:42;1.05;;;0.70;;
38513;SDS011;24282;48.400;10.808;2022-10-16T14:30:51;1.95;;;0.60;;
38513;SDS011;24282;48.400;10.808;2022-10-16T14:33:23;1.75;;;0.90;;
38513;SDS011;24282;48.400;10.808;2022-10-16T14:36:03;1.50;;;0.95;;
38513;SDS011;24282;48.400;10.808;2022-10-16T14:38:30;1.05;;;0.82;;
38513;SDS011;24282;48.400;10.808;2022-10-16T14:40:57;1.33;;;0.90;;
38513;SDS011;24282;48.400;10.808;2022-10-16T14:43:30;1.77;;;0.80;;
38513;SDS011;24282;48.400;10.808;2022-10-16T14:46:02;1.65;;;0.80;;
38513;SDS011;24282;48.400;10.808;2022-10-16T14:48:49;1.63;;;0.80;;
38513;SDS011;24282;48.400;10.808;2022-10-16T14:51:16;1.55;;;0.77;;
38513;SDS011;24282;48.400;10.808;2022-10-16T14:53:44;1.23;;;0.75;;
38513;SDS011;24282;48.400;10.808;2022-10-16T14:56:20;1.08;;;0.60;;
38513;SDS011;24282;48.400;10.808;2022-10-16T14:58:49;1.20;;;0.88;;
38513;SDS011;24282;48.400;10.808;2022-10-16T15:01:16;4.65;;;0.65;;
38513;SDS011;24282;48.400;10.808;2022-10-16T15:03:42;2.58;;;0.65;;
38513;SDS011;24282;48.400;10.808;2022-10-16T15:06:11;1.90;;;0.75;;
38513;SDS011;24282;48.400;10.808;2022-10-16T15:08:39;1.58;;;0.80;;
38513;SDS011;24282;48.400;10.808;2022-10-16T15:11:08;3.53;;;0.93;;
38513;SDS011;24282;48.400;10.808;2022-10-16T15:13:39;1.98;;;0.70;;
38513;SDS011;24282;48.400;10.808;2022-10-16T15:16:08;1.60;;;0.85;;
38513;SDS011;24282;48.400;10.808;2022-10-16T15:18:39;1.60;;;0.75;;
38513;SDS011;24282;48.400;10.808;2022-10-16T15:21:05;1.75;;;0.77;;
38513;SDS011;24282;48.400;10.808;2022-10-16T15:23:31;2.85;;;0.90;;
38513;SDS011;24282;48.400;10.808;2022-10-16T15:25:57;2.65;;;0.90;;
38513;SDS011;24282;48.400;10.808;2022-10-16T15:28:23;2.60;;;1.35;;
38513;SDS011;24282;48.400;10.808;2022-10-16T15:30:54;2.15;;;0.82;;
38513;SDS011;24282;48.400;10.808;2022-10-16T15:33:22;1.75;;;0.70;;
38513;SDS011;24282;48.400;10.808;2022-10-16T15:35:52;1.35;;;0.85;;
38513;SDS011;24282;48.400;10.808;2022-10-16T15:38:19;0.95;;;0.68;;
38513;SDS011;24282;48.400;10.808;2022-10-16T15:40:46;1.83;;;0.93;;
38513;SDS011;24282;48.400;10.808;2022-10-16T15:43:13;5.32;;;1.48;;
38513;SDS011;24282;48.400;10.808;2022-10-16T15:45:38;2.95;;;1.23;;
38513;SDS011;24282;48.400;10.808;2022-10-16T15:48:04;4.20;;;1.33;;
38513;SDS011;24282;48.400;10.808;2022-10-16T15:50:31;1.88;;;1.27;;
38513;SDS011;24282;48.400;10.808;2022-10-16T15:52:57;2.70;;;1.10;;
38513;SDS011;24282;48.400;10.808;2022-10-16T15:55:23;1.95;;;1.02;;
38513;SDS011;24282;48.400;10.808;2022-10-16T15:57:49;3.45;;;0.95;;
38513;SDS011;24282;48.400;10.808;2022-10-16T16:00:16;2.55;;;0.80;;
38513;SDS011;24282;48.400;10.808;2022-10-16T16:02:49;1.83;;;0.95;;
38513;SDS011;24282;48.400;10.808;2022-10-16T16:05:19;4.50;;;1.27;;
38513;SDS011;24282;48.400;10.808;2022-10-16T16:07:46;5.55;;;1.77;;
38513;SDS011;24282;48.400;10.808;2022-10-16T16:10:12;2.08;;;1.25;;
38513;SDS011;24282;48.400;10.808;2022-10-16T16:12:38;1.98;;;1.13;;
38513;SDS011;24282;48.400;10.808;2022-10-16T16:15:04;3.50;;;1.58;;
38513;SDS011;24282;48.400;10.808;2022-10-16T16:17:32;3.47;;;1.88;;
38513;SDS011;24282;48.400;10.808;2022-10-16T16:19:58;3.80;;;1.83;;
38513;SDS011;24282;48.400;10.808;2022-10-16T16:22:24;5.88;;;1.95;;
38513;SDS011;24282;48.400;10.808;2022-10-16T16:24:50;5.28;;;1.77;;
38513;SDS011;24282;48.400;10.808;2022-10-16T16:27:15;3.70;;;1.38;;
38513;SDS011;24282;48.400;10.808;2022-10-16T16:29:41;3.65;;;2.17;;
38513;SDS011;24282;48.400;10.808;2022-10-16T16:32:07;3.45;;;1.65;;
38513;SDS011;24282;48.400;10.808;2022-10-16T16:34:33;3.15;;;1.80;;
38513;SDS011;24282;48.400;10.808;2022-10-16T16:36:59;4.35;;;1.85;;
38513;SDS011;24282;48.400;10.808;2022-10-16T16:39:25;4.78;;;1.67;;
38513;SDS011;24282;48.400;10.808;2022-10-16T16:41:51;7.88;;;2.55;;
38513;SDS011;24282;48.400;10.808;2022-10-16T16:44:17;5.13;;;2.03;;
38513;SDS011;24282;48.400;10.808;2022-10-16T16:46:43;6.03;;;2.78;;
38513;SDS011;24282;48.400;10.808;2022-10-16T16:49:10;4.72;;;2.40;;
38513;SDS011;24282;48.400;10.808;2022-10-16T16:51:37;5.00;;;1.85;;
38513;SDS011;24282;48.400;10.808;2022-10-16T16:54:04;9.18;;;2.13;;
38513;SDS011;24282;48.400;10.808;2022-10-16T16:56:32;3.35;;;2.17;;
38513;SDS011;24282;48.400;10.808;2022-10-16T16:58:58;7.53;;;1.92;;
38513;SDS011;24282;48.400;10.808;2022-10-16T17:01:25;3.97;;;1.80;;
38513;SDS011;24282;48.400;10.808;2022-10-16T17:03:53;7.63;;;2.10;;
38513;SDS011;24282;48.400;10.808;2022-10-16T17:06:21;4.90;;;2.33;;
38513;SDS011;24282;48.400;10.808;2022-10-16T17:08:49;9.43;;;2.75;;
38513;SDS011;24282;48.400;10.808;2022-10-16T17:11:22;5.07;;;1.98;;